createdAt,value
2019-01-23T00:01:40.492Z,4.77
2019-01-23T00:04:07.500Z,4.57
2019-01-23T00:06:34.488Z,4.80
2019-01-23T00:09:04.401Z,4.53
2019-01-23T00:11:32.443Z,4.67
2019-01-23T00:13:59.417Z,5.00
2019-01-23T00:16:26.278Z,5.00
2019-01-23T00:18:53.205Z,5.50
2019-01-23T00:21:20.256Z,4.90
2019-01-23T00:23:47.311Z,4.67
2019-01-23T00:26:14.467Z,4.80
2019-01-23T00:28:42.480Z,5.57
2019-01-23T00:31:09.471Z,4.77
2019-01-23T00:33:36.445Z,4.53
2019-01-23T00:36:03.568Z,4.60
2019-01-23T00:38:30.615Z,4.70
2019-01-23T00:40:58.583Z,4.27
2019-01-23T00:43:25.935Z,4.87
2019-01-23T00:45:52.882Z,4.77
2019-01-23T00:48:19.829Z,4.17
2019-01-23T00:50:46.776Z,4.57
2019-01-23T00:53:13.822Z,4.73
2019-01-23T00:55:42.609Z,5.40
2019-01-23T00:58:10.069Z,4.77
2019-01-23T01:00:36.964Z,4.97
2019-01-23T01:03:03.959Z,4.67
2019-01-23T01:05:31.519Z,5.10
2019-01-23T01:07:59.900Z,4.90
2019-01-23T01:10:26.840Z,4.73
2019-01-23T01:12:53.890Z,5.10
2019-01-23T01:15:20.938Z,4.90
2019-01-23T01:17:47.883Z,4.67
2019-01-23T01:20:15.245Z,4.70
2019-01-23T01:22:42.397Z,5.17
2019-01-23T01:25:10.567Z,4.73
2019-01-23T01:27:37.614Z,4.67
2019-01-23T01:30:09.372Z,4.30
2019-01-23T01:32:36.422Z,3.53
2019-01-23T01:35:04.498Z,4.13
2019-01-23T01:37:31.642Z,3.73
2019-01-23T01:39:58.592Z,3.90
2019-01-23T01:42:25.738Z,3.70
2019-01-23T01:44:52.787Z,3.90
2019-01-23T01:47:20.038Z,4.00
2019-01-23T01:49:47.288Z,4.47
2019-01-23T01:52:14.436Z,4.23
2019-01-23T01:54:41.307Z,4.20
2019-01-23T01:57:08.172Z,4.77
2019-01-23T01:59:35.009Z,4.43
2019-01-23T02:02:03.038Z,4.40
2019-01-23T02:04:30.187Z,4.30
2019-01-23T02:07:00.103Z,3.90
2019-01-23T02:09:27.148Z,3.57
2019-01-23T02:11:54.196Z,3.93
2019-01-23T02:14:24.013Z,3.93
2019-01-23T02:16:51.059Z,4.00
2019-01-23T02:19:18.209Z,4.03
2019-01-23T02:21:45.258Z,4.03
2019-01-23T02:24:12.302Z,4.63
2019-01-23T02:26:39.454Z,4.30
2019-01-23T02:29:09.641Z,4.70
2019-01-23T02:31:35.032Z,4.53
2019-01-23T02:34:03.163Z,5.10
2019-01-23T02:36:30.206Z,4.70
2019-01-23T02:38:57.255Z,4.30
2019-01-23T02:41:24.405Z,5.03
2019-01-23T02:43:51.560Z,4.93
2019-01-23T02:46:18.849Z,4.73
2019-01-23T02:48:46.469Z,4.97
2019-01-23T02:51:13.821Z,4.23
2019-01-23T02:53:41.080Z,4.70
2019-01-23T02:56:08.740Z,4.80
2019-01-23T02:58:35.961Z,4.27
2019-01-23T03:01:03.666Z,4.30
2019-01-23T03:03:33.361Z,4.10
2019-01-23T03:06:00.413Z,4.27
2019-01-23T03:08:27.559Z,4.50
2019-01-23T03:10:55.136Z,4.50
2019-01-23T03:13:22.182Z,4.50
2019-01-23T03:15:50.546Z,3.40
2019-01-23T03:18:17.595Z,3.67
2019-01-23T03:20:44.950Z,3.93
2019-01-23T03:23:12.102Z,3.43
2019-01-23T03:25:39.153Z,3.90
2019-01-23T03:28:06.507Z,3.63
2019-01-23T03:30:34.069Z,4.00
2019-01-23T03:33:00.916Z,3.90
2019-01-23T03:35:30.514Z,4.47
2019-01-23T03:37:57.562Z,3.53
2019-01-23T03:40:25.120Z,3.97
2019-01-23T03:42:52.377Z,4.00
2019-01-23T03:45:19.238Z,4.70
2019-01-23T03:47:49.234Z,4.07
2019-01-23T03:50:17.108Z,3.93
2019-01-23T03:52:45.586Z,4.40
2019-01-23T03:55:13.120Z,3.60
2019-01-23T03:57:42.239Z,4.10
2019-01-23T04:00:10.624Z,3.53
2019-01-23T04:02:39.637Z,3.90
2019-01-23T04:05:07.500Z,4.50
2019-01-23T04:07:34.367Z,4.10
2019-01-23T04:10:01.635Z,4.20
2019-01-23T04:12:28.829Z,3.93
2019-01-23T04:14:59.908Z,3.60
2019-01-23T04:17:27.431Z,3.70
2019-01-23T04:19:56.153Z,3.87
2019-01-23T04:22:23.368Z,3.50
2019-01-23T04:24:50.519Z,4.20
2019-01-23T04:27:17.773Z,3.97
2019-01-23T04:29:44.860Z,4.20
2019-01-23T04:32:13.613Z,4.27
2019-01-23T04:34:40.760Z,3.50
2019-01-23T04:37:08.365Z,4.50
2019-01-23T04:39:35.777Z,4.67
2019-01-23T04:42:03.131Z,3.63
2019-01-23T04:44:32.123Z,4.33
2019-01-23T04:46:59.275Z,4.03
2019-01-23T04:49:26.049Z,4.50
2019-01-23T04:51:58.861Z,3.93
2019-01-23T04:54:27.793Z,4.20
2019-01-23T04:56:54.613Z,4.57
2019-01-23T04:59:21.593Z,4.83
2019-01-23T05:01:50.673Z,3.97
2019-01-23T05:04:17.729Z,4.43
2019-01-23T05:06:50.510Z,4.73
2019-01-23T05:09:18.932Z,4.73
2019-01-23T05:11:46.135Z,5.20
2019-01-23T05:14:13.288Z,4.03
2019-01-23T05:16:40.435Z,4.27
2019-01-23T05:19:07.511Z,4.20
2019-01-23T05:21:38.293Z,4.30
2019-01-23T05:24:05.366Z,4.40
2019-01-23T05:26:32.801Z,4.67
2019-01-23T05:29:00.696Z,4.80
2019-01-23T05:31:31.939Z,4.30
2019-01-23T05:33:58.883Z,4.87
2019-01-23T05:36:26.034Z,4.67
2019-01-23T05:38:52.913Z,5.40
2019-01-23T05:41:19.826Z,5.70
2019-01-23T05:43:47.123Z,5.77
2019-01-23T05:46:15.249Z,8.93
2019-01-23T05:48:43.342Z,6.83
2019-01-23T05:51:10.475Z,6.13
2019-01-23T05:53:37.365Z,5.63
2019-01-23T05:56:04.264Z,6.10
2019-01-23T05:58:31.311Z,5.90
2019-01-23T06:00:58.196Z,5.60
2019-01-23T06:03:25.199Z,5.17
2019-01-23T06:05:52.040Z,5.40
2019-01-23T06:08:19.090Z,5.90
2019-01-23T06:10:46.003Z,7.73
2019-01-23T06:13:13.013Z,6.97
2019-01-23T06:15:40.158Z,6.40
2019-01-23T06:18:07.049Z,6.27
2019-01-23T06:20:34.122Z,5.73
2019-01-23T06:23:01.167Z,6.37
2019-01-23T06:25:28.024Z,6.23
2019-01-23T06:27:54.956Z,5.70
2019-01-23T06:30:23.438Z,6.10
2019-01-23T06:32:50.592Z,5.37
2019-01-23T06:35:17.741Z,5.47
2019-01-23T06:37:44.888Z,5.30
2019-01-23T06:40:13.503Z,5.53
2019-01-23T06:42:40.325Z,5.53
2019-01-23T06:45:10.573Z,5.30
2019-01-23T06:47:37.681Z,5.57
2019-01-23T06:50:06.582Z,5.20
2019-01-23T06:52:34.861Z,5.53
2019-01-23T06:55:01.616Z,5.50
2019-01-23T06:57:28.747Z,5.30
2019-01-23T06:59:55.896Z,5.33
2019-01-23T07:02:23.049Z,5.43
2019-01-23T07:04:50.170Z,5.63
2019-01-23T07:07:17.660Z,5.47
2019-01-23T07:09:44.809Z,5.70
2019-01-23T07:12:11.851Z,5.60
2019-01-23T07:14:39.011Z,5.93
2019-01-23T07:17:06.152Z,5.00
2019-01-23T07:19:33.204Z,5.30
2019-01-23T07:22:00.462Z,5.40
2019-01-23T07:24:27.406Z,5.90
2019-01-23T07:26:54.658Z,5.63
2019-01-23T07:29:22.620Z,5.47
2019-01-23T07:31:49.769Z,5.90
2019-01-23T07:34:16.763Z,4.97
2019-01-23T07:36:43.870Z,5.03
2019-01-23T07:39:10.966Z,5.00
2019-01-23T07:41:37.756Z,4.83
2019-01-23T07:44:04.703Z,5.40
2019-01-23T07:46:31.721Z,5.17
2019-01-23T07:48:58.706Z,5.30
2019-01-23T07:51:25.529Z,5.60
2019-01-23T07:53:52.548Z,5.40
2019-01-23T07:56:19.700Z,5.30
2019-01-23T07:58:46.642Z,5.70
2019-01-23T08:01:13.692Z,6.27
2019-01-23T08:03:40.637Z,6.07
2019-01-23T08:06:07.713Z,6.27
2019-01-23T08:08:34.935Z,5.27
2019-01-23T08:11:01.922Z,5.87
2019-01-23T08:13:28.933Z,6.33
2019-01-23T08:15:55.981Z,6.70
2019-01-23T08:18:23.125Z,5.27
2019-01-23T08:20:52.835Z,6.23
2019-01-23T08:23:19.886Z,5.77
2019-01-23T08:25:46.728Z,7.03
2019-01-23T08:28:14.802Z,5.40
2019-01-23T08:30:41.646Z,6.30
2019-01-23T08:33:08.545Z,6.20
2019-01-23T08:35:35.319Z,5.60
2019-01-23T08:38:02.070Z,6.13
2019-01-23T08:40:28.816Z,5.90
2019-01-23T08:42:55.654Z,4.90
2019-01-23T08:45:22.497Z,5.17
2019-01-23T08:47:49.439Z,5.53
2019-01-23T08:50:17.871Z,5.43
2019-01-23T08:52:46.814Z,5.90
2019-01-23T08:55:15.601Z,5.43
2019-01-23T08:57:42.444Z,5.07
2019-01-23T09:00:10.824Z,4.13
2019-01-23T09:02:38.720Z,4.57
2019-01-23T09:05:07.378Z,4.80
2019-01-23T09:07:34.427Z,5.57
2019-01-23T09:10:05.537Z,4.83
2019-01-23T09:12:33.745Z,4.63
2019-01-23T09:15:01.723Z,5.57
2019-01-23T09:17:28.557Z,4.77
2019-01-23T09:19:55.604Z,4.90
2019-01-23T09:22:22.649Z,5.20
2019-01-23T09:24:49.494Z,4.63
2019-01-23T09:27:16.440Z,5.50
2019-01-23T09:29:43.488Z,6.10
2019-01-23T09:32:16.268Z,5.53
2019-01-23T09:34:45.876Z,4.90
2019-01-23T09:37:21.218Z,5.37
2019-01-23T09:39:59.224Z,5.80
2019-01-23T09:42:31.290Z,5.07
2019-01-23T09:45:02.943Z,6.10
2019-01-23T09:47:31.578Z,6.37
2019-01-23T09:50:09.430Z,5.20
2019-01-23T09:52:47.436Z,5.23
2019-01-23T09:55:15.507Z,6.80
2019-01-23T09:57:43.172Z,6.10
2019-01-23T10:00:12.985Z,5.60
2019-01-23T10:02:39.828Z,5.27
2019-01-23T10:05:07.123Z,5.93
2019-01-23T10:07:34.127Z,5.47
2019-01-23T10:10:01.070Z,5.40
2019-01-23T10:12:28.120Z,5.33
2019-01-23T10:14:55.272Z,5.20
2019-01-23T10:17:22.111Z,4.80
2019-01-23T10:19:49.057Z,5.90
2019-01-23T10:22:16.000Z,6.63
2019-01-23T10:24:43.254Z,6.43
2019-01-23T10:27:10.304Z,5.50
2019-01-23T10:29:37.348Z,6.30
2019-01-23T10:32:04.193Z,6.00
2019-01-23T10:34:32.385Z,6.60
2019-01-23T10:36:59.314Z,6.37
2019-01-23T10:39:26.257Z,5.13
2019-01-23T10:41:53.410Z,6.43
2019-01-23T10:44:20.458Z,6.07
2019-01-23T10:46:47.299Z,6.37
2019-01-23T10:49:14.345Z,6.10
2019-01-23T10:51:41.188Z,6.00
2019-01-23T10:54:07.839Z,6.03
2019-01-23T10:56:34.980Z,6.47
2019-01-23T10:59:01.720Z,7.03
2019-01-23T11:01:28.662Z,7.90
2019-01-23T11:03:55.405Z,7.23
2019-01-23T11:06:22.657Z,7.50
2019-01-23T11:08:49.400Z,7.10
2019-01-23T11:11:18.082Z,7.30
2019-01-23T11:13:46.155Z,7.27
2019-01-23T11:16:12.998Z,6.90
2019-01-23T11:18:39.842Z,7.40
2019-01-23T11:21:06.793Z,7.43
2019-01-23T11:23:33.835Z,6.17
2019-01-23T11:26:00.779Z,6.33
2019-01-23T11:28:27.525Z,5.67
2019-01-23T11:30:54.366Z,4.93
2019-01-23T11:33:21.209Z,7.63
2019-01-23T11:35:48.256Z,5.73
2019-01-23T11:38:15.099Z,4.97
2019-01-23T11:40:45.113Z,5.10
2019-01-23T11:43:11.858Z,5.63
2019-01-23T11:45:38.699Z,5.00
2019-01-23T11:48:05.555Z,4.40
2019-01-23T11:50:32.386Z,4.10
2019-01-23T11:53:00.158Z,4.63
2019-01-23T11:55:26.895Z,4.07
2019-01-23T11:57:53.844Z,4.20
2019-01-23T12:00:22.060Z,4.50
2019-01-23T12:02:49.261Z,4.17
2019-01-23T12:05:16.926Z,3.97
2019-01-23T12:07:44.383Z,3.37
2019-01-23T12:10:13.373Z,3.60
2019-01-23T12:12:40.326Z,3.67
2019-01-23T12:15:08.804Z,4.03
2019-01-23T12:17:36.506Z,3.53
2019-01-23T12:20:04.991Z,3.83
2019-01-23T12:22:33.428Z,3.80
2019-01-23T12:25:00.374Z,3.97
2019-01-23T12:27:28.343Z,4.20
2019-01-23T12:29:55.491Z,5.17
2019-01-23T12:32:22.538Z,4.13
2019-01-23T12:34:49.509Z,3.50
2019-01-23T12:37:19.300Z,3.97
2019-01-23T12:39:46.343Z,4.17
2019-01-23T12:42:13.312Z,4.10
2019-01-23T12:44:40.340Z,4.67
2019-01-23T12:47:07.080Z,4.47
2019-01-23T12:49:33.922Z,4.03
2019-01-23T12:52:02.712Z,3.87
2019-01-23T12:54:31.090Z,3.83
2019-01-23T12:56:57.929Z,4.13
2019-01-23T12:59:24.773Z,4.10
2019-01-23T13:01:51.829Z,5.67
2019-01-23T13:04:19.591Z,5.93
2019-01-23T13:06:46.431Z,4.90
2019-01-23T13:09:13.171Z,5.97
2019-01-23T13:11:40.117Z,7.33
2019-01-23T13:14:07.063Z,7.90
2019-01-23T13:16:34.114Z,8.43
2019-01-23T13:19:00.854Z,9.47
2019-01-23T13:21:27.590Z,6.93
2019-01-23T13:23:54.640Z,8.43
2019-01-23T13:26:21.581Z,7.67
2019-01-23T13:28:48.220Z,8.83
2019-01-23T13:31:15.174Z,10.50
2019-01-23T13:33:42.223Z,9.00
2019-01-23T13:36:09.263Z,9.77
2019-01-23T13:38:40.964Z,9.10
2019-01-23T13:41:08.886Z,9.87
2019-01-23T13:43:35.731Z,10.00
2019-01-23T13:46:02.469Z,10.13
2019-01-23T13:48:32.387Z,9.57
2019-01-23T13:51:00.473Z,9.40
2019-01-23T13:53:27.302Z,8.87
2019-01-23T13:55:54.041Z,8.83
2019-01-23T13:58:20.990Z,9.33
2019-01-23T14:00:47.937Z,9.03
2019-01-23T14:03:14.986Z,8.57
2019-01-23T14:05:41.829Z,8.93
2019-01-23T14:08:08.769Z,8.50
2019-01-23T14:10:36.537Z,8.50
2019-01-23T14:13:03.279Z,8.40
2019-01-23T14:15:31.243Z,8.60
2019-01-23T14:17:58.088Z,8.87
2019-01-23T14:20:25.339Z,8.30
2019-01-23T14:22:52.313Z,8.57
2019-01-23T14:25:19.331Z,8.63
2019-01-23T14:27:46.382Z,8.27
2019-01-23T14:30:17.156Z,9.60
2019-01-23T14:32:43.999Z,8.17
2019-01-23T14:35:10.696Z,7.70
2019-01-23T14:37:37.743Z,8.07
2019-01-23T14:40:06.209Z,8.20
2019-01-23T14:42:34.092Z,8.20
2019-01-23T14:45:02.213Z,8.03
2019-01-23T14:47:30.748Z,8.23
2019-01-23T14:49:57.700Z,7.73
2019-01-23T14:52:24.638Z,8.30
2019-01-23T14:54:51.685Z,8.50
2019-01-23T14:57:18.526Z,8.20
2019-01-23T14:59:47.321Z,8.13
2019-01-23T15:02:14.367Z,8.23
2019-01-23T15:04:41.312Z,8.67
2019-01-23T15:07:08.065Z,8.63
2019-01-23T15:09:34.894Z,8.07
2019-01-23T15:12:01.844Z,8.33
2019-01-23T15:14:28.682Z,9.53
2019-01-23T15:16:55.424Z,7.33
2019-01-23T15:19:22.473Z,9.23
2019-01-23T15:21:51.161Z,8.37
2019-01-23T15:24:17.897Z,8.90
2019-01-23T15:26:44.944Z,8.97
2019-01-23T15:29:11.893Z,9.47
2019-01-23T15:31:38.631Z,7.00
2019-01-23T15:34:05.475Z,8.00
2019-01-23T15:36:32.321Z,7.53
2019-01-23T15:38:59.366Z,7.97
2019-01-23T15:41:26.416Z,8.77
2019-01-23T15:43:53.257Z,7.83
2019-01-23T15:46:20.204Z,9.10
2019-01-23T15:48:47.249Z,8.23
2019-01-23T15:51:13.895Z,8.37
2019-01-23T15:53:40.731Z,7.60
2019-01-23T15:56:07.884Z,8.07
2019-01-23T15:58:34.725Z,7.80
2019-01-23T16:01:01.568Z,8.60
2019-01-23T16:03:30.354Z,8.23
2019-01-23T16:05:56.995Z,8.90
2019-01-23T16:08:23.943Z,8.60
2019-01-23T16:10:50.991Z,8.60
2019-01-23T16:13:17.833Z,9.70
2019-01-23T16:15:44.884Z,11.07
2019-01-23T16:18:11.929Z,10.93
2019-01-23T16:20:41.744Z,10.70
2019-01-23T16:23:08.835Z,10.53
2019-01-23T16:25:35.834Z,11.90
2019-01-23T16:28:02.678Z,10.57
2019-01-23T16:30:33.637Z,17.73
2019-01-23T16:33:00.354Z,14.97
2019-01-23T16:35:27.097Z,13.30
2019-01-23T16:37:54.043Z,11.93
2019-01-23T16:40:20.897Z,11.90
2019-01-23T16:42:47.625Z,10.70
2019-01-23T16:45:17.883Z,11.13
2019-01-23T16:47:45.696Z,10.43
2019-01-23T16:50:14.198Z,10.13
2019-01-23T16:52:40.840Z,10.80
2019-01-23T16:55:08.904Z,10.17
2019-01-23T16:57:35.901Z,12.00
2019-01-23T17:00:03.614Z,11.67
2019-01-23T17:02:30.959Z,11.00
2019-01-23T17:04:57.918Z,12.03
2019-01-23T17:07:24.747Z,11.57
2019-01-23T17:09:51.705Z,10.73
2019-01-23T17:12:18.599Z,10.53
2019-01-23T17:14:45.540Z,10.30
2019-01-23T17:17:12.541Z,10.93
2019-01-23T17:19:40.847Z,9.47
2019-01-23T17:22:07.559Z,9.77
2019-01-23T17:24:34.500Z,10.03
2019-01-23T17:27:01.242Z,10.03
2019-01-23T17:29:30.804Z,9.30
2019-01-23T17:31:56.567Z,9.33
2019-01-23T17:34:23.616Z,9.03
2019-01-23T17:36:50.612Z,8.53
2019-01-23T17:39:17.402Z,9.57
2019-01-23T17:41:44.148Z,9.73
2019-01-23T17:44:11.295Z,9.23
2019-01-23T17:46:38.448Z,9.73
2019-01-23T17:49:05.495Z,8.67
2019-01-23T17:51:32.641Z,9.57
2019-01-23T17:53:59.592Z,8.57
2019-01-23T17:56:26.639Z,8.67
2019-01-23T17:58:53.668Z,8.07
2019-01-23T18:01:20.422Z,12.63
2019-01-23T18:03:47.680Z,12.67
2019-01-23T18:06:14.621Z,12.30
2019-01-23T18:08:41.568Z,10.70
2019-01-23T18:11:09.025Z,11.33
2019-01-23T18:13:36.278Z,12.23
2019-01-23T18:16:03.740Z,13.30
2019-01-23T18:18:30.787Z,14.57
2019-01-23T18:20:57.631Z,12.57
2019-01-23T18:23:24.673Z,11.67
2019-01-23T18:25:51.419Z,12.33
2019-01-23T18:28:18.460Z,13.57
2019-01-23T18:30:47.249Z,13.63
2019-01-23T18:33:15.823Z,14.10
2019-01-23T18:35:44.928Z,13.90
2019-01-23T18:38:14.025Z,13.60
2019-01-23T18:40:51.882Z,12.53
2019-01-23T18:43:30.803Z,11.27
2019-01-23T18:46:02.459Z,19.93
2019-01-23T18:48:37.391Z,15.63
2019-01-23T18:51:09.211Z,13.83
2019-01-23T18:53:39.114Z,14.43
2019-01-23T18:56:08.530Z,14.80
2019-01-23T18:58:35.421Z,12.37
2019-01-23T19:01:02.408Z,11.97
2019-01-23T19:03:29.045Z,12.80
2019-01-23T19:05:55.993Z,14.10
2019-01-23T19:08:23.040Z,14.23
2019-01-23T19:10:50.090Z,12.63
2019-01-23T19:13:17.135Z,13.03
2019-01-23T19:15:44.084Z,13.63
2019-01-23T19:18:11.029Z,13.27
2019-01-23T19:20:38.011Z,12.00
2019-01-23T19:23:04.919Z,11.63
2019-01-23T19:25:31.968Z,11.60
2019-01-23T19:27:58.815Z,11.93
2019-01-23T19:30:25.757Z,11.03
2019-01-23T19:32:52.850Z,11.47
2019-01-23T19:35:19.647Z,12.13
2019-01-23T19:37:46.488Z,11.80
2019-01-23T19:40:13.536Z,13.33
2019-01-23T19:42:40.326Z,12.80
2019-01-23T19:45:09.270Z,12.40
2019-01-23T19:47:36.149Z,12.53
2019-01-23T19:50:03.267Z,12.03
2019-01-23T19:52:30.416Z,12.17
2019-01-23T19:57:55.307Z,12.33
2019-01-23T20:00:22.447Z,14.07
2019-01-23T20:02:49.498Z,13.90
2019-01-23T20:05:18.080Z,12.77
2019-01-23T20:07:46.970Z,12.70
2019-01-23T20:10:17.190Z,14.20
2019-01-23T20:12:44.040Z,13.17
2019-01-23T20:15:13.661Z,14.07
2019-01-23T20:17:42.640Z,12.20
2019-01-23T20:20:17.780Z,12.90
2019-01-23T20:22:44.823Z,13.33
2019-01-23T20:25:13.360Z,13.63
2019-01-23T20:27:40.300Z,13.63
2019-01-23T20:30:18.354Z,13.67
2019-01-23T20:32:45.297Z,13.50
2019-01-23T20:35:12.351Z,12.07
2019-01-23T20:37:43.463Z,12.57
2019-01-23T20:40:09.811Z,11.80
2019-01-23T20:42:36.869Z,11.67
2019-01-23T20:45:05.808Z,11.13
2019-01-23T20:47:33.857Z,10.73
2019-01-23T20:50:00.882Z,10.00
2019-01-23T20:52:30.302Z,10.43
2019-01-23T20:54:57.433Z,10.87
2019-01-23T20:57:24.890Z,10.93
2019-01-23T20:59:53.167Z,11.23
2019-01-23T21:02:20.435Z,12.93
2019-01-23T21:04:47.467Z,11.73
2019-01-23T21:07:14.514Z,12.03
2019-01-23T21:09:41.665Z,11.73
2019-01-23T21:12:08.627Z,10.90
2019-01-23T21:14:35.801Z,11.30
2019-01-23T21:17:02.673Z,11.70
2019-01-23T21:19:29.761Z,11.70
2019-01-23T21:21:56.804Z,12.03
2019-01-23T21:24:24.059Z,10.70
2019-01-23T21:26:53.219Z,11.23
2019-01-23T21:29:21.684Z,11.47
2019-01-23T21:31:48.680Z,10.47
2019-01-23T21:34:18.883Z,11.30
2019-01-23T21:36:47.619Z,11.30
2019-01-23T21:39:18.104Z,11.87
2019-01-23T21:41:55.084Z,11.37
2019-01-23T21:44:23.971Z,11.30
2019-01-23T21:46:51.971Z,12.13
2019-01-23T21:49:19.132Z,11.20
2019-01-23T21:51:50.577Z,11.20
2019-01-23T21:54:23.524Z,12.33
2019-01-23T21:57:07.420Z,11.43
2019-01-23T21:59:38.972Z,11.27
2019-01-23T22:02:06.452Z,11.13
2019-01-23T22:04:38.850Z,9.87
2019-01-23T22:07:09.922Z,10.20
2019-01-23T22:09:39.242Z,10.07
2019-01-23T22:12:07.791Z,9.90
2019-01-23T22:14:38.363Z,10.83
2019-01-23T22:17:09.948Z,10.47
2019-01-23T22:19:37.600Z,10.10
2019-01-23T22:22:08.738Z,10.53
2019-01-23T22:24:40.148Z,10.30
2019-01-23T22:27:08.552Z,10.37
2019-01-23T22:29:38.274Z,10.77
2019-01-23T22:32:07.375Z,10.43
2019-01-23T22:34:37.995Z,10.73
2019-01-23T22:37:05.215Z,10.87
2019-01-23T22:39:32.921Z,9.87
2019-01-23T22:42:08.626Z,10.03
2019-01-23T22:44:41.309Z,10.57
2019-01-23T22:47:08.685Z,10.13
2019-01-23T22:49:35.711Z,10.60
2019-01-23T22:52:04.046Z,10.73
2019-01-23T22:54:33.880Z,9.23
2019-01-23T22:57:02.490Z,8.93
2019-01-23T22:59:31.097Z,10.07
2019-01-23T23:01:58.026Z,10.23
2019-01-23T23:04:25.172Z,10.23
2019-01-23T23:06:55.237Z,9.97
2019-01-23T23:09:23.564Z,9.83
2019-01-23T23:11:52.353Z,10.00
2019-01-23T23:14:21.755Z,8.63
2019-01-23T23:16:52.611Z,8.87
2019-01-23T23:19:22.600Z,8.97
2019-01-23T23:21:50.792Z,10.03
2019-01-23T23:24:22.995Z,9.30
2019-01-23T23:26:50.881Z,9.30
2019-01-23T23:29:20.063Z,8.57
2019-01-23T23:31:51.545Z,9.30
2019-01-23T23:34:19.129Z,8.20
2019-01-23T23:36:48.835Z,8.83
2019-01-23T23:39:21.346Z,8.77
2019-01-23T23:41:50.805Z,8.80
2019-01-23T23:44:18.903Z,7.80
2019-01-23T23:46:50.547Z,7.53
2019-01-23T23:49:21.859Z,7.37
2019-01-23T23:51:52.303Z,7.53
2019-01-23T23:54:22.751Z,6.20
2019-01-23T23:56:51.712Z,5.97
2019-01-23T23:59:23.312Z,6.30
